x

8452951 - Potter Cove, Prudence Island, Ri (ptcr1) Weather Station

8:54 - Tue 16th Sep 2014 All times are EDT. -4 hours from GMT.

  • Wind
    1mph, 3mph gusts
  • Ar Temp 62°f
  • Sea Pressure 1014.6mb
  • 8452951 - Potter Cove, Prudence Island, Ri
  • 8452951 - Potter Cove, Prudence Island, Ri

More Historic Weather Station data

Upgrade to MSW Pro to gain access to the past 30 days of data for over 8000 Wavebouys and Weather Stations around the globe.

Join Pro

Comparision Forecast

View Surf forecast
   
Ter 09/16 8:54 1 3 mph 1014.6mb 62f
8:48 2 3 mph 1014.7mb 62f
8:42 3 6 mph 1014.6mb 62f
8:36 3
mph
1014.7mb 62f
8:30 3 5 mph 1014.7mb 62f
8:24 2 5 mph 1014.7mb 62f
8:18 3 5 mph 1014.6mb 62f
8:12 3 5 mph 1014.7mb 62f
8:06 2 3 mph 1014.6mb 62f
8:00 2 5 mph 1014.5mb 62f
7:54 3 7 mph 1014.4mb 63f
7:48 3 6 mph 1014.3mb 63f
7:42 3 5 mph 1014.3mb 63f
7:36 3 5 mph 1014.2mb 63f
7:30 3 6 mph 1014.1mb 63f
7:24 5 7 mph 1014.1mb 64f
7:18 3 6 mph 1014.1mb 63f
7:12 3 5 mph 1014mb 63f
7:06 2
mph
1014mb 63f
7:00 2
mph
1014mb 64f
6:54 2 3 mph 1014mb 64f
6:48 2 3 mph 1014mb 64f
6:42 3 6 mph 1014mb 64f
6:36 3 6 mph 1014mb 64f
6:30 3 5 mph 1014mb 64f
6:24 5 8 mph 1014mb 64f
6:18 5 9 mph 1014mb 64f
6:12 5 7 mph 1014.1mb 65f
6:06 5 8 mph 1014.1mb 65f
6:00 5 8 mph 1014mb 65f
5:54 5 8 mph 1014mb 65f
5:48 5 8 mph 1014mb 65f
5:42 3 8 mph 1014mb 65f
5:36 6 10 mph 1014mb 65f
5:30 7 10 mph 1014mb 65f
5:24 6 10 mph 1013.9mb 65f
5:18 7 10 mph 1013.9mb 65f
5:12 6 9 mph 1013.8mb 65f
5:06 7 9 mph 1013.8mb 65f
5:00 7 11 mph 1013.8mb 65f
4:54 6 10 mph 1013.8mb 65f
4:48 7 13 mph 1013.8mb 66f
4:42 6 10 mph 1013.8mb 66f
4:36 7 13 mph 1013.8mb 66f
4:30 7 10 mph 1013.8mb 66f
4:24 7 13 mph 1013.8mb 66f
4:18 8 15 mph 1013.7mb 66f
4:12 6 9 mph 1013.8mb 66f
4:06 6 10 mph 1013.8mb 66f
4:00 5 9 mph 1013.7mb 66f
3:54 6 10 mph 1013.6mb 66f
3:48 5 9 mph 1013.6mb 66f
3:42 3 7 mph 1013.6mb 66f
3:36 5 10 mph 1013.6mb 65f
3:30 5 10 mph 1013.7mb 65f
3:24 6 10 mph 1013.7mb 66f
3:18 5 11 mph 1013.7mb 66f
3:12 5 10 mph 1013.7mb 67f
3:06 3 7 mph 1013.7mb 68f
3:00 5 8 mph 1013.7mb 67f
2:54 5 8 mph 1013.7mb 69f
2:48 5 9 mph 1013.8mb 70f
2:42 5 9 mph 1013.9mb 70f
2:36 6 10 mph 1013.9mb 70f
2:30 3 8 mph 1013.9mb 69f
2:24 5 10 mph 1013.9mb 68f
2:18 6 11 mph 1014mb 68f
2:12 5 9 mph 1014mb 69f
2:06 3 7 mph 1014.1mb 70f
2:00 5 9 mph 1014.1mb 69f
1:54 5 9 mph 1014.1mb 68f
1:48 5 8 mph 1014.2mb 68f
1:42 5 10 mph 1014.1mb 67f
1:36 2 7 mph 1014mb 69f
1:30 7 14 mph 1014mb 69f
1:24 5 10 mph 1014.1mb 69f
1:18 3 8 mph 1014.2mb 69f
1:12 6 11 mph 1014.2mb 68f
1:06 5 9 mph 1014.3mb 68f
1:00 3 9 mph 1014.5mb 68f
12:18  -  mph 1015.1mb -
12:12  -  mph 1015.1mb -
12:06  -  mph 1015.1mb -
12:00  -  mph 1015.2mb -
11:54  -  mph 1015.3mb -
11:48 3 6 mph 1015.4mb 66f
11:42 2 6 mph 1015.4mb 67f
11:36 3 6 mph 1015.4mb 66f
11:30 2 6 mph 1015.4mb 66f
11:24 3 7 mph 1015.4mb 66f
11:18 2 7 mph 1015.5mb 66f
11:12 3 7 mph 1015.5mb 66f
11:06 3 6 mph 1015.4mb 66f
11:00 3 6 mph 1015.6mb 66f
10:54 2 5 mph 1015.6mb 66f
10:48 3 5 mph 1015.6mb 67f
10:42 5 7 mph 1015.6mb 67f
10:30 2 7 mph 1015.8mb -
10:24 5 9 mph 1015.8mb 67f
10:18  -  mph 1015.8mb -
10:12  -  mph 1015.8mb -
10:06  -  mph 1015.8mb -
9:54  -  mph - 66f
9:48  -  mph - 66f
9:42  -  mph - 65f
9:36  -  mph - 67f
9:30  -  mph - 66f
9:24  -  mph - 65f
9:18  -  mph - 66f
9:12  -  mph - 65f
9:06  -  mph - 63f
9:00 2
mph
- 63f
8:54  -  2 mph - 62f
8:48 2 3 mph 1016mb 62f
8:42 2 3 mph 1015.8mb 62f
8:36 2 3 mph 1015.8mb 62f
8:30 1 3 mph - 63f
8:24 2 3 mph - 62f
8:18 2 3 mph 1016mb 62f
8:12 2 5 mph 1016mb 61f
8:06 2 3 mph 1016.2mb 61f
8:00 2 3 mph 1016.3mb 60f
7:54 2 3 mph 1016.4mb 59f
7:48 2 3 mph 1016.5mb 58f
7:42  -  1 mph 1016.5mb 58f
7:36  -  1 mph 1016.5mb 58f
7:30  -  mph 1016.5mb 58f
7:24  -  mph 1016.5mb 57f
7:18  -  1 mph 1016.5mb 57f
7:12 2
mph
1016.6mb 57f
7:06 2
mph
1016.6mb 56f
7:00 1
mph
1016.7mb 56f
6:54  -  1 mph 1016.8mb 56f
6:48  -  1 mph 1016.9mb 56f
6:42  -  1 mph 1016.9mb 56f
6:36  -  1 mph 1016.8mb 56f
6:30  -  1 mph - 56f
6:24  -  mph - 56f
6:18  -  1 mph 1016.7mb 56f
6:12  -  1 mph 1016.8mb 57f
6:06  -  1 mph 1016.8mb 56f
6:00  -  1 mph 1016.9mb 56f
5:54  -  1 mph 1016.9mb 56f
5:48  -  1 mph 1016.9mb 56f
5:42 1 2 mph 1016.9mb 56f
5:36  -  1 mph 1016.9mb 56f
5:30 2 3 mph 1017mb 56f
5:24 2 3 mph 1017mb 56f
5:18 1 2 mph 1017.1mb 56f
5:12 2
mph
1017mb 56f
5:06 2 3 mph 1016.9mb 56f
5:00 1 2 mph 1016.8mb 56f
4:54 1 2 mph 1016.9mb 56f
4:48 1 2 mph 1016.8mb 55f
4:42 2
mph
1016.8mb 56f
4:36  -  1 mph 1016.6mb 56f
4:30 2
mph
1016.8mb 56f
4:24 2
mph
1016.8mb 56f
4:18 1
mph
1016.7mb 56f
4:12 1 2 mph 1016.7mb 56f
4:06 1 2 mph 1016.7mb 55f
4:00 2
mph
1016.7mb 55f
3:54 1 2 mph 1016.8mb 55f
3:48 1 2 mph 1016.9mb 55f
3:42 2
mph
1016.9mb 55f
3:36  -  1 mph 1017mb 56f
3:30 1 2 mph 1017mb 56f
3:24 1 2 mph 1017mb 56f
3:18 2
mph
1017.1mb -
3:12 2
mph
1017.2mb 56f
3:06 2
mph
1017.3mb 56f
3:00 2 3 mph 1017.3mb 56f
2:54 2
mph
1017.3mb 56f
2:48  -  mph 1017.4mb 56f
2:42  -  mph - 55f
2:36  -  mph - 55f
2:30  -  mph - 55f
2:24  -  mph - 55f
2:18  -  mph - 55f
2:12  -  mph - 55f
2:06  -  mph - 55f
2:00  -  mph - 56f
1:48  -  mph - 54f
1:42  -  mph - 55f
1:36  -  mph - 55f
1:30  -  1 mph 1018.1mb 55f
1:24 1 2 mph 1018.2mb 56f
1:18 2 3 mph 1018.3mb 56f
1:12 2
mph
1018.3mb 56f
1:06 3
mph
1018.3mb 55f
1:00 3
mph
1018.4mb -
12:54 2 3 mph 1018.5mb -
12:48  -  mph 1018.5mb 56f
12:42 2 3 mph 1018.4mb 56f
12:36 3 5 mph 1018.4mb 56f
12:30 3 5 mph 1018.4mb 55f
12:24 3
mph
1018.4mb 56f
12:18  -  mph - 56f
12:12  -  mph - 55f
12:06  -  mph - 55f
12:00  -  mph 1018.5mb -
Seg 09/15 11:54  -  mph 1018.5mb -
11:48  -  mph 1018.6mb 55f
11:42  -  mph 1018.6mb 54f
11:36  -  mph 1018.4mb 56f
11:30  -  1 mph 1018.4mb 56f
11:24  -  1 mph 1018.3mb 57f
11:18  -  mph 1018.3mb 57f
11:12  -  mph 1018.4mb 58f
11:06  -  mph 1018.6mb 57f
11:00 3 5 mph - 58f
10:54 2 5 mph - 57f
10:48  -  mph 1018.6mb -
10:42  -  mph 1018.6mb -
10:36  -  mph 1018.7mb -
10:30  -  mph - 58f
10:24  -  mph - 58f
10:18 2 5 mph - -
10:12 2 3 mph - 58f
10:06 2
mph
- 59f
10:00 2
mph
1018.9mb 58f
9:54 2 3 mph 1019mb 58f
9:48 2 5 mph 1019.1mb 59f
9:42 3 5 mph 1019.2mb 58f
9:36 3 5 mph 1019.3mb 58f
9:30 3 5 mph 1019.2mb 59f
9:24 3 5 mph 1019.2mb 60f
9:18 3 7 mph 1019.2mb 60f
9:12 3 6 mph 1019.3mb 60f
9:06 5 7 mph 1019.4mb 60f
9:00 3 7 mph 1019.4mb 60f
8:54 5 8 mph 1019.5mb 60f
8:48 5 8 mph 1019.4mb 60f
8:42 6 8 mph 1019.5mb 60f
8:36 5 8 mph 1019.5mb 61f
8:30 5 7 mph 1019.4mb 61f
8:24 6 8 mph 1019.4mb 61f
8:18 7 11 mph 1019.3mb 62f
8:12 6 7 mph 1019.4mb 62f
8:06 7 10 mph 1019.5mb 62f
8:00 7 13 mph 1019.3mb 62f
7:54 5 9 mph 1019.3mb 62f
7:48 3 9 mph 1019.1mb 62f
7:42 3 8 mph 1019.1mb 62f
7:36 5 7 mph 1019mb 62f
7:30 5 8 mph 1019.3mb 62f
7:24 5 7 mph 1019.4mb 62f
7:18 3 7 mph 1019.5mb 62f
7:12 5 8 mph 1019.3mb 62f
7:06 5 8 mph 1019.3mb 62f
7:00 3 8 mph 1019.1mb 62f
6:54 3 7 mph 1019mb 62f
6:48 3 7 mph 1018.8mb 62f
6:42 5 8 mph 1019mb 62f
6:36 3 9 mph 1019.1mb 62f
6:30 3 8 mph 1019.1mb 62f
6:24 3 6 mph 1019.1mb 63f
6:18 2 7 mph 1019.2mb 63f
6:12 3 8 mph 1019.4mb 63f
6:06 3 9 mph 1019.5mb 63f
6:00 5 10 mph 1019.7mb 64f
5:54 5 9 mph 1019.6mb 64f
5:48 5 9 mph 1019.7mb 64f
5:42 2 6 mph 1019.6mb 64f
5:36 5 10 mph 1019.6mb 64f
5:30 3 8 mph 1019.5mb 64f
5:24 3 9 mph 1019.5mb 65f
5:18 5 9 mph 1019.4mb 63f
5:12 5 9 mph 1019.5mb 63f
5:06 6 10 mph 1019.4mb 64f
5:00 5 9 mph 1019.5mb 64f
4:54 5 8 mph 1019.6mb 64f
4:48 5 10 mph 1019.6mb 64f
4:42 5 9 mph 1019.5mb 64f
4:36 3 8 mph 1019.4mb 64f
4:30 5 9 mph 1019.4mb 64f
4:24 3 9 mph 1019.4mb 64f
4:18 3 8 mph 1019.4mb 64f
4:12 3 7 mph 1019.5mb 64f
4:06 5 8 mph 1019.6mb 65f
4:00 3 6 mph 1019.7mb 65f
3:54 3 8 mph 1019.6mb 65f
3:48 3 7 mph 1019.6mb 65f
3:42 3 6 mph 1019.6mb 66f
3:36 3 7 mph 1019.7mb 66f
3:30 3 8 mph 1019.9mb 64f
3:24 5 8 mph 1019.9mb 64f
3:18 3 6 mph 1019.9mb 66f
3:12 5 10 mph 1020mb 65f
3:06 3 7 mph 1020.1mb 65f
3:00 1 5 mph 1020.1mb 67f
2:54 2 6 mph 1020.1mb 66f
2:48 1 3 mph 1020.1mb 67f
2:42 3 8 mph 1020.2mb 65f
2:36 3 6 mph 1020.1mb 65f
2:30 3 7 mph 1020.2mb 65f
2:24 5 8 mph 1020.3mb 65f
2:18 3 7 mph 1020.4mb 65f
2:12 3 6 mph 1020.5mb 65f
2:06 6 7 mph 1020.6mb 65f
2:00 5 7 mph 1020.7mb 65f
1:54 3 7 mph 1020.7mb 65f
1:48 2 5 mph 1020.7mb 66f
1:42 3 6 mph 1020.8mb 67f
1:36 3 6 mph 1020.8mb 66f
1:30 5 7 mph 1020.7mb 67f
1:24 3 6 mph 1020.8mb 66f
1:18 5 7 mph 1020.8mb 66f
1:12 5 7 mph 1020.9mb 65f
1:06 3 6 mph 1021mb 66f
1:00 5 7 mph 1021.2mb 66f
12:54 5 6 mph 1021.2mb 64f
12:48 3 6 mph 1021.3mb 64f
12:42 3 5 mph 1021.4mb 64f
12:36 3 6 mph 1021.4mb 63f
12:30 3 6 mph 1021.5mb 63f
12:24 3 6 mph 1021.6mb 63f
12:18 3 6 mph 1021.7mb 63f
12:12 5 6 mph 1021.6mb 64f
12:06 3 5 mph 1021.6mb 63f
12:00 3 5 mph 1021.7mb 63f
11:54 3 6 mph 1021.7mb 64f
11:48 3 5 mph 1021.9mb 63f
11:42 3 6 mph 1022mb 64f
11:36 3 5 mph 1022mb 64f
11:30 3 5 mph 1022mb 64f
11:24 5 6 mph 1022.1mb 63f
11:18 3 6 mph 1022.1mb 61f
11:12 5 6 mph 1022.2mb 62f
11:06 6 8 mph 1022.2mb 61f
11:00 6 7 mph 1022.4mb 61f
10:54 6 8 mph 1022.4mb 61f
10:48 7 9 mph 1022.5mb 61f
10:42 8 10 mph 1022.4mb 60f
10:36 7 10 mph 1022.5mb 60f
10:30 7 9 mph 1022.5mb 60f
10:24 7 10 mph 1022.6mb 60f
10:18 6 9 mph 1022.7mb 60f
10:12 6 9 mph 1022.8mb 60f
10:06 6 9 mph 1022.9mb 59f
10:00 7 9 mph 1022.9mb 58f
9:54 6 8 mph 1022.9mb 57f
9:48 7 9 mph 1023mb 57f
9:42 6 9 mph 1022.9mb 57f
9:36 6 8 mph 1022.9mb 57f
9:30 7 9 mph 1022.9mb 56f
9:24 6 9 mph 1023mb 56f
9:18 7 9 mph 1023mb 55f
9:12 7 9 mph 1023mb 56f
9:06 6 9 mph 1023mb 55f
9:00 7 9 mph 1023mb 55f
8:54 7 9 mph 1023mb 55f
8:48 7 9 mph 1023.1mb 54f
8:42 6 9 mph 1023.1mb 54f
8:36 7 10 mph 1023.1mb 54f
8:30 7 9 mph 1023.1mb 53f
8:24 7 10 mph 1023.2mb 54f
8:18 8 11 mph 1023.1mb 55f
8:12 9 13 mph 1023.1mb 54f
8:06 8 13 mph 1023.1mb 54f
8:00 8 14 mph 1023.1mb 54f
7:54 7 13 mph 1023.1mb 54f
7:48 8 11 mph 1023.1mb 53f
7:42 8 13 mph 1023.2mb 53f
7:36 8 11 mph 1023.2mb 53f
7:30 8 14 mph 1023.1mb 52f
7:24 8 13 mph 1023.1mb 53f
7:18 10 14 mph 1023.1mb 52f
7:12 8 15 mph 1023.1mb 52f
7:06 7 10 mph 1023.1mb 51f
7:00 6 9 mph 1023.2mb 51f
6:54 7 10 mph 1023.1mb 51f
6:48 7 11 mph 1023.1mb 51f
6:42 7 13 mph 1023.2mb 52f
6:36 9 13 mph 1023.1mb 52f
6:30 8 13 mph 1023.1mb 52f
6:24 7 10 mph 1023.1mb 52f
6:18 8 10 mph 1023mb 52f
6:12 6 10 mph 1023mb 51f
6:06 6 10 mph 1023mb 52f
6:00 8 11 mph 1023mb 52f
5:54 7 10 mph 1023mb 52f
5:48 8 11 mph 1022.9mb 52f
5:42 7 14 mph 1022.6mb 53f
5:36 9 16 mph 1022.6mb 53f
5:30 8 13 mph 1022.5mb 53f
5:24 7 10 mph 1022.5mb 53f
5:18 9 14 mph 1022.5mb 53f
5:12 9 15 mph 1022.5mb 53f
5:06 10 15 mph 1022.4mb 53f
5:00 8 13 mph 1022.3mb 53f
4:54 8 13 mph 1022.3mb 53f
4:48 6 10 mph 1022.2mb 53f
4:42 7 9 mph 1022.2mb 53f
4:36 6 9 mph 1022.2mb 53f
4:30 6 9 mph 1022.1mb 53f
4:24 6 8 mph 1022.2mb 53f
4:18 7 11 mph 1022.2mb 53f
4:12 7 11 mph 1022.1mb 53f
4:06 8 13 mph 1022mb 53f
4:00 8 15 mph 1022mb 53f
3:54 9 14 mph 1022mb 53f
3:48 9 13 mph 1021.9mb 54f
3:42 10 16 mph 1021.9mb 53f
3:36 9 15 mph 1021.9mb 53f
3:30 10 15 mph 1021.8mb 54f
3:24 10 16 mph 1021.8mb 55f
3:18 9 15 mph 1021.7mb 55f
3:12 8 13 mph 1021.7mb 55f
3:06 10 15 mph 1021.8mb 54f
3:00 11 15 mph 1021.8mb 55f
2:54 8 14 mph 1021.8mb 55f
2:48 9 15 mph 1021.9mb 56f
2:42 9 14 mph 1021.9mb 56f
2:36 11 18 mph 1021.9mb 56f
2:30 13 18 mph 1022mb 56f
2:24 10 15 mph 1021.9mb 56f
2:18 11 16 mph 1022mb 56f
2:12 9 14 mph 1022mb 56f
2:06 9 14 mph 1022mb 56f
2:00 10 15 mph 1021.9mb 57f
1:54 10 16 mph 1021.9mb 56f
1:48 10 15 mph 1021.8mb 56f
1:42 8 14 mph 1021.8mb 56f
1:36 8 11 mph 1021.8mb 56f
1:30 7 10 mph 1021.9mb 56f
1:24 7 11 mph 1021.9mb 55f
1:18 8 10 mph 1021.9mb 56f
1:12 8 11 mph 1021.8mb 56f
1:06 6 10 mph 1021.8mb 56f
1:00 8 13 mph 1021.8mb 56f
12:54 7 11 mph 1021.7mb 56f
12:48 8 10 mph 1021.6mb 56f
12:42 6 9 mph 1021.7mb 56f
12:36 5 8 mph 1021.7mb 56f
12:30 5 7 mph 1021.7mb 56f
12:24 5 8 mph 1021.7mb 57f
12:18 5 8 mph 1021.7mb 57f
12:12 6 8 mph 1021.7mb 58f
12:06 5 7 mph 1021.7mb 58f
12:00 5 8 mph 1021.7mb 59f
Dom 09/14 11:54 5 6 mph 1021.7mb 59f
11:48 3 8 mph 1021.7mb 60f
11:42 6 8 mph 1021.6mb 60f
11:36 6 8 mph 1021.5mb 60f
11:30 5 7 mph 1021.6mb 60f
11:24 5 8 mph 1021.5mb 60f
11:18 3 6 mph 1021.6mb 60f
11:12 6 10 mph 1021.6mb 60f
11:06 5 7 mph 1021.6mb 60f
11:00 6 9 mph 1021.6mb 60f
10:54 6 10 mph 1021.6mb 60f
10:48 6 10 mph 1021.5mb 60f
10:42 3 8 mph 1021.5mb 60f
10:36 6 9 mph 1021.4mb 60f
10:30 6 10 mph 1021.5mb 60f
10:24 7 9 mph 1021.5mb 60f
10:18 8 10 mph 1021.4mb 60f
10:12 7 11 mph 1021.4mb 60f
10:06 8 11 mph 1021.4mb 60f
10:00 7 10 mph 1021.4mb 60f
9:54 8 11 mph 1021.4mb 60f
9:48 7 11 mph 1021.5mb 60f
9:42 8 11 mph 1021.6mb 60f
9:36 8 11 mph 1021.6mb 60f
9:30 9 11 mph 1021.7mb 60f
9:24 7 10 mph 1021.7mb 60f
9:18 6 8 mph 1021.7mb 61f
9:12 7 9 mph 1021.8mb 61f
9:06 6 8 mph 1021.8mb 61f
9:00 6 9 mph 1021.7mb 61f
8:54 5 8 mph 1021.8mb 61f
8:48 6 10 mph 1021.8mb 61f
8:42 6 10 mph 1021.7mb 62f
8:36 2 3 mph 1021.8mb 62f
8:30 2 5 mph 1021.8mb 60f
8:24 2 3 mph 1021.8mb 61f
8:18 2
mph
1021.7mb 60f
8:12 2 3 mph 1021.7mb 61f
8:06 1 2 mph 1021.8mb 61f
8:00 2
mph
1021.7mb 61f
7:54 2 3 mph 1021.7mb 61f
7:48 2
mph
1021.5mb 62f
7:42 2
mph
1021.5mb 62f
7:36 2 3 mph 1021.5mb 62f
7:30 2 3 mph 1021.5mb 62f
7:24 3 8 mph 1021.4mb 62f
7:18 2 5 mph 1021.5mb 62f
7:12 3 6 mph 1021.3mb 63f
7:06 2 6 mph 1021.3mb 62f
7:00 3 6 mph 1021.2mb 63f
6:54 2 6 mph 1021.3mb 63f
6:48 2 5 mph 1021.3mb 63f
6:42 3 7 mph 1021.3mb 63f
6:36 3 6 mph 1021.3mb 63f
6:30 6 8 mph 1021.5mb 63f
6:24 6 8 mph 1021.4mb 63f
6:18 6 8 mph 1021.3mb 64f
6:12 6 9 mph 1021.3mb 64f
6:06 5 8 mph 1021.3mb 64f
6:00 6 9 mph 1021.3mb 64f
5:54 5 9 mph 1021.3mb 64f
5:48 5 7 mph 1021.2mb 64f
5:42 6 8 mph 1021.2mb 64f
5:36 5 8 mph 1021.2mb 64f
5:30 5 8 mph 1021.2mb 65f
5:24 6 9 mph 1021.1mb 65f
5:18 6 10 mph 1021.1mb 65f
5:12 3 6 mph 1021.1mb 65f
5:06 5 7 mph 1021.2mb 67f
5:00 5 8 mph 1021.2mb 67f
4:54 2 5 mph 1021.1mb 68f
4:48 2 5 mph 1021.1mb 67f
4:42  -  2 mph 1021.1mb 67f
4:36 2 3 mph 1021.1mb 69f
4:30 2 3 mph 1021.1mb 67f
4:24 2 3 mph 1021.2mb 67f
4:18 2 3 mph 1021.1mb 68f
4:12 3 5 mph 1021.1mb 67f
4:06 2 3 mph 1021.1mb 68f
4:00 5 6 mph 1021.1mb 67f
3:54 6 7 mph 1021.1mb 67f
3:48 6 8 mph 1021mb 68f
3:42 5 8 mph 1021mb 68f
3:36 6 7 mph 1021mb 68f
3:30 5 6 mph 1021mb 68f
3:24 3 7 mph 1021mb 68f
3:18 2 5 mph 1021mb 68f
3:12 6 7 mph 1021mb 68f
3:06 5 6 mph 1021mb 67f
3:00 3 5 mph 1021.1mb 67f
2:54 3 6 mph 1021.1mb 67f
2:48 3 6 mph 1021.2mb 67f
2:42 3 5 mph 1021.3mb 66f
2:36 2 5 mph 1021.3mb 67f
2:30 3 6 mph 1021.3mb 66f
2:24 2 3 mph 1021.3mb 67f
2:18 3 5 mph 1021.4mb 67f
2:12 2 5 mph 1021.4mb 67f
2:06 3 6 mph 1021.6mb 66f
2:00 5 6 mph 1021.6mb 66f
1:54 3 6 mph 1021.6mb 65f
1:48 3 6 mph 1021.6mb 65f
1:42 3 5 mph 1021.7mb 65f
1:36 2 5 mph 1021.7mb 66f
1:30 3 6 mph 1021.6mb 67f
1:24 5 8 mph 1021.7mb 65f
1:18 1 5 mph 1021.8mb 65f
1:12 3 8 mph 1021.9mb 65f
1:06 5 8 mph 1021.9mb 65f
1:00 7 11 mph 1021.8mb 65f
12:54 6 10 mph 1021.9mb 64f
12:48 6 9 mph 1021.9mb 64f
12:42 3 8 mph 1021.8mb 65f
12:36 5 8 mph 1021.8mb 65f
12:30 5 8 mph 1021.8mb 64f
12:24 6 11 mph 1021.8mb 64f
12:18 6 9 mph 1021.9mb 64f
12:12 7 13 mph 1021.9mb 64f
12:06 7 13 mph 1021.9mb 64f
12:00 7 11 mph 1021.9mb 64f
11:54 10 14 mph 1022mb 63f
11:48 9 17 mph 1022mb 64f
11:42 8 14 mph 1022.1mb 62f
11:36 9 15 mph 1022.1mb 62f
11:30 10 15 mph 1022.2mb 62f
11:24 11 17 mph 1022.3mb 62f
11:18 10 17 mph 1022.3mb 62f
11:12 10 15 mph 1022.3mb 62f
11:06 10 18 mph 1022.4mb 61f
11:00 9 16 mph 1022.5mb 61f
10:54 9 15 mph 1022.6mb 61f
10:48 8 15 mph 1022.7mb 60f
10:42 8 15 mph 1022.7mb 60f
10:36 8 15 mph 1022.7mb 60f
10:30 9 15 mph 1022.7mb 60f
10:24 9 16 mph 1022.7mb 60f
10:18 11 21 mph 1022.6mb 60f
10:12 11 20 mph 1022.6mb 59f
10:06 10 20 mph 1022.7mb 60f
10:00 9 16 mph 1022.7mb 59f
9:54 10 15 mph 1022.7mb 59f
9:48 10 16 mph 1022.7mb 58f
9:42 10 18 mph 1022.8mb 58f
9:36 10 17 mph 1022.9mb 58f
9:30 10 16 mph 1022.9mb 58f
9:24 8 15 mph 1022.8mb 58f
9:18 10 14 mph 1022.8mb 58f
9:12 13 18 mph 1022.8mb 58f
9:06 10 17 mph 1022.7mb 58f
9:00 13 18 mph 1022.6mb 57f
8:54 13 21 mph 1022.5mb 57f
8:48 14 20 mph 1022.5mb 57f
8:42 14 22 mph 1022.4mb 57f
8:36 13 21 mph 1022.4mb 57f
8:30 15 22 mph 1022.4mb 57f
8:24 16 24 mph 1022.4mb 57f
8:18 13 22 mph 1022.4mb 56f
8:12 10 22 mph 1022.4mb 56f
8:06 10 18 mph 1022.4mb 56f
8:00 9 18 mph 1022.3mb 55f
7:54 10 18 mph 1022.3mb 55f
7:48 9 18 mph 1022.2mb 55f
7:42 10 22 mph 1022.2mb 55f
7:36 11 18 mph 1022.2mb 55f
7:30 8 15 mph 1022.2mb 54f
7:24 9 14 mph 1022.2mb 54f
7:18 9 18 mph 1022.1mb 54f
7:12 8 16 mph 1022mb 54f
7:06 9 16 mph 1022mb 54f
7:00 9 18 mph 1021.9mb 54f
6:54 10 18 mph 1021.7mb 54f
6:48 9 18 mph 1021.7mb 54f
6:42 10 18 mph 1021.5mb 54f
6:36 10 18 mph 1021.5mb 54f
6:30 11 18 mph 1021.4mb 54f
6:24 10 18 mph 1021.3mb 54f
6:18 11 18 mph 1021.2mb 54f
6:12 8 17 mph 1021.1mb 54f
6:06 7 16 mph 1021.1mb 54f
6:00 9 16 mph 1021mb 54f
5:54 8 16 mph 1020.9mb 54f
5:48 7 14 mph 1020.8mb 54f
5:42 9 17 mph 1020.7mb 54f
5:36 8 14 mph 1020.7mb 54f
5:30 6 11 mph 1020.6mb 54f
5:24 7 13 mph 1020.5mb 54f
5:18 6 14 mph 1020.4mb 54f
5:12 6 13 mph 1020.4mb 54f
5:06 6 15 mph 1020.3mb 54f
5:00 6 10 mph 1020.3mb 54f
4:54 6 13 mph 1020.2mb 54f
4:48 3 7 mph 1020.2mb 54f
4:42 5 11 mph 1020.2mb 54f
4:36 5 10 mph 1020.1mb 54f
4:30 5 10 mph 1020.1mb 54f
4:24 5 9 mph 1020.1mb 54f
4:18 5 8 mph 1020.1mb 55f
4:12 6 13 mph 1020.1mb 54f
4:06 5 9 mph 1020mb 55f
4:00 3 8 mph 1019.9mb 55f
3:54 5 10 mph 1019.9mb 55f
3:48 5 10 mph 1019.9mb 55f
3:42 5 9 mph 1019.8mb 55f
3:36 7 13 mph 1019.7mb 56f
3:30 5 11 mph 1019.7mb 56f
3:24 6 16 mph 1019.6mb 56f
3:18 6 13 mph 1019.5mb 56f
3:12 6 11 mph 1019.5mb 56f
3:06 6 9 mph 1019.4mb 56f
3:00 5 8 mph 1019.4mb 57f
2:54 6 10 mph 1019.4mb 57f
2:48 5 9 mph 1019.4mb 57f
2:42 2 8 mph 1019.4mb 58f
2:36 5 9 mph 1019.4mb 58f
2:18 3 7 mph 1019.4mb 58f
2:00 3 7 mph 1019.2mb 58f
1:54 3 6 mph 1019.2mb 58f
1:48 3 8 mph - -
1:42 3 9 mph 1019mb 58f
1:36 2 5 mph 1019mb 59f
1:30 5 8 mph 1019mb 59f
1:24 3 6 mph 1018.9mb 59f
1:18 2 6 mph 1018.9mb 59f
1:12 3 7 mph 1018.8mb 59f
1:06 5 7 mph 1018.8mb 59f
1:00 3 7 mph 1018.8mb 59f
12:54 3 6 mph 1018.9mb 59f
12:48 5 10 mph - -
12:42 5 9 mph 1019mb 59f
12:36 3 5 mph 1018.9mb 60f
12:30 3 7 mph - 60f
12:24 5 7 mph - 60f
12:18 3 6 mph 1018.9mb 60f
12:12 3 6 mph 1018.9mb 60f
12:06 5 8 mph 1018.9mb 60f
12:00 5 8 mph 1019mb 60f
Sáb 09/13 11:54 3 7 mph 1019mb 60f
11:48 5 10 mph 1019mb 60f
11:30 6 13 mph 1019.1mb 60f
11:24 3 8 mph 1019.1mb 60f
11:18 5 10 mph 1019.1mb 61f
11:12 3 7 mph 1019.2mb 61f
11:06 2 6 mph 1019.1mb 61f
11:00 3 5 mph 1019mb 61f
10:54 3 7 mph 1019mb 61f
10:48 3 6 mph 1019mb 61f
10:42 1 2 mph 1018.9mb 61f
10:36 1 2 mph 1018.9mb 61f
10:30 2 3 mph 1018.9mb 61f
10:24 2 5 mph 1018.8mb 61f
10:18 2 5 mph 1018.8mb 61f
10:12 2 3 mph 1018.8mb 61f
10:06 2 3 mph 1018.7mb 61f
10:00 2 3 mph 1018.6mb 61f
9:54 2 3 mph 1018.8mb 62f
9:48 2 3 mph 1018.8mb 62f
9:42 2 5 mph 1018.8mb 62f
9:36 3 5 mph 1018.8mb 62f
9:30 5 6 mph 1018.6mb 62f
9:24 3 5 mph 1018.6mb 62f
9:18 2 5 mph 1018.6mb 62f
9:12 5 8 mph 1018.6mb 62f
9:06 5 9 mph 1018.6mb 62f
9:00 6 8 mph 1018.7mb 62f
8:54 3 6 mph 1018.7mb 62f
8:48 5 7 mph 1018.7mb 62f
8:42 5 9 mph 1018.6mb 62f
8:36 5 8 mph 1018.7mb 62f
8:30 6 10 mph 1018.8mb 62f
8:24 3 7 mph 1018.9mb 62f
8:18 3 7 mph 1018.7mb 62f
8:12 7 11 mph 1018.7mb 62f
8:06 5 9 mph 1018.9mb 61f
8:00 3 7 mph 1018.8mb 61f
7:54 2 5 mph 1018.9mb 61f
7:48 3 6 mph 1018.9mb 61f
7:42 5 7 mph 1018.8mb 61f
7:36 5 8 mph 1018.9mb 61f
7:30 5 7 mph 1018.9mb 61f
7:24 2 5 mph 1019.1mb 61f
7:18 5 7 mph 1019.2mb 61f
7:12 5 7 mph 1019.3mb 61f
7:06 5 7 mph 1019.4mb 61f
7:00 6 8 mph 1019.4mb 61f
6:54 5 7 mph 1019.4mb 61f
6:48 3 6 mph 1019.4mb 61f
6:42  -  1 mph 1019.5mb 60f
6:36 2
mph
1019.5mb 60f
6:30 2 3 mph 1019.7mb 60f
6:24 2 3 mph 1019.8mb 61f
6:18 2 3 mph 1020.1mb 61f
6:12  -  1 mph 1020.1mb 62f
6:06 2 3 mph 1020.1mb 63f
6:00 2 3 mph 1020.5mb 63f
5:54  -  1 mph 1020.5mb 64f
5:48 2
mph
1020.6mb 64f
5:42  -  1 mph 1020.6mb 65f
5:36  -  1 mph 1020.5mb 65f
5:30  -  1 mph 1020.5mb 65f
5:24  -  1 mph 1020.5mb 65f
5:18 1 2 mph 1020.3mb 65f
5:12  -  1 mph 1020.2mb 65f
5:06 2 5 mph 1020.1mb 66f
5:00  -  3 mph 1019.9mb 66f
4:54 3 6 mph 1019.6mb 66f
4:48 1 3 mph 1019.4mb 67f
4:42 3 7 mph 1019.3mb 67f
4:36 1 3 mph 1019.3mb 67f
4:30 3 8 mph 1019.2mb 67f
4:24 3 7 mph 1019.2mb 67f
4:18 3 9 mph 1019.2mb 67f
4:12 3 7 mph 1019.2mb 68f
4:06 3 7 mph 1019.3mb 68f
4:00 2 3 mph 1019.2mb 68f
3:54 5 10 mph 1019.3mb 68f
3:48 3 8 mph 1019.3mb 68f
3:42 2 5 mph 1019.4mb 68f
3:36 3 7 mph 1019.3mb 68f
3:30 3 7 mph 1019.5mb 67f
3:24 5 9 mph 1019.4mb 67f
3:18 3 8 mph 1019.5mb 67f
3:12 5 11 mph 1019.6mb 67f
3:06 3 9 mph 1019.6mb 67f
3:00 6 13 mph 1019.6mb 67f
2:54 6 14 mph 1019.5mb 68f
2:48 6 13 mph 1019.7mb 69f
2:42 8 14 mph 1019.7mb 69f
2:36 7 14 mph 1019.8mb 68f
2:30 6 13 mph 1019.8mb 68f
2:24 7 14 mph 1019.7mb 69f
2:18 6 13 mph 1020.1mb 68f
2:12 6 17 mph 1020.1mb 68f
2:06 8 15 mph 1020.2mb 69f
2:00 6 11 mph 1020.2mb 69f
1:54 6 11 mph 1020.3mb 70f
1:48 5 8 mph 1020.7mb 70f
1:42 6 9 mph 1021mb 70f
1:36 6 13 mph 1021.1mb 70f
1:30 6 11 mph 1021.3mb 70f
1:24 6 9 mph 1021.2mb 71f
1:18 5 9 mph 1021.3mb 70f
1:12 6 9 mph 1021.3mb 70f
1:06 5 8 mph 1021.4mb 69f
1:00 5 7 mph 1021.5mb 68f
12:54 5 11 mph 1021.7mb 69f
12:48 5 8 mph 1021.7mb 69f
12:42 3 7 mph 1022mb 70f
12:36 5 8 mph 1022mb 69f
12:30 3 7 mph 1022.1mb 69f
12:24 3 6 mph 1022.3mb 68f
12:18 5 10 mph 1022.2mb 70f
12:12 5 10 mph 1022.1mb 70f
12:06 6 11 mph 1022mb 69f
12:00 7 14 mph 1022mb 69f
11:54 7 11 mph 1022.1mb 69f
11:48 7 13 mph 1022.1mb 69f
11:42 7 14 mph 1022mb 69f
11:36 7 14 mph 1021.8mb 69f
11:30 8 15 mph 1021.8mb 68f
11:24 7 14 mph 1021.8mb 68f
11:18 9 18 mph 1021.8mb 68f
11:12 14 16 mph 1021.8mb 67f
11:06 8 13 mph 1022mb 67f
11:00 8 13 mph 1022.1mb 67f
10:54 8 16 mph 1022.3mb 67f
10:48 9 15 mph 1022.2mb 67f
10:42 7 13 mph 1022.2mb 66f
10:36 10 16 mph 1022.3mb 66f
10:30 9 13 mph 1022.4mb 66f
10:24 8 16 mph 1022.5mb 66f
10:18 9 14 mph 1022.5mb 65f
10:12 8 11 mph 1022.5mb 65f
10:06 10 14 mph 1022.5mb 65f
10:00 10 15 mph 1022.5mb 65f
9:54 7 11 mph 1022.6mb 65f
9:48 9 13 mph 1022.7mb 65f
9:42 10 13 mph 1022.7mb 66f
9:36 10 15 mph 1022.7mb 65f
9:30 9 14 mph 1022.8mb 65f
9:24 10 14 mph 1022.8mb 63f
9:18 10 16 mph 1022.7mb 63f
9:12 10 13 mph 1022.8mb 62f
9:06 8 11 mph 1022.8mb 62f
9:00 8 13 mph 1022.8mb 62f
8:54 9 11 mph 1022.9mb 61f
8:48 9 14 mph 1023mb 60f
8:42 10 15 mph 1023.1mb 59f
8:36 10 15 mph 1023.2mb 59f
8:30 11 15 mph 1023mb 59f
8:24 11 16 mph 1023mb 59f
8:18 11 16 mph 1023.2mb 59f
8:12 13 16 mph 1023.3mb 59f
8:06 14 20 mph 1023.3mb 59f
8:00 13 18 mph 1023.3mb 58f
7:54 10 16 mph 1023.4mb 58f
7:48 11 16 mph 1023.4mb 58f
7:42 11 17 mph 1023.4mb 58f
7:36 11 16 mph 1023.6mb 58f
7:30 13 18 mph 1023.7mb 58f
7:24 11 16 mph 1023.6mb 58f
7:18 9 15 mph 1023.6mb 58f
7:12 9 15 mph 1023.6mb 57f
7:06 11 16 mph 1023.6mb 57f
7:00 10 15 mph 1023.6mb 57f
6:54 9 15 mph 1023.7mb 57f
6:48 10 16 mph 1023.7mb 57f
6:42 9 13 mph 1023.8mb 56f
6:36 11 16 mph 1023.8mb 56f
6:30 11 17 mph 1023.6mb 57f
6:24 9 14 mph 1023.5mb 57f
6:18 10 16 mph 1023.4mb 57f
6:12 10 14 mph 1023.4mb 57f
6:06 10 16 mph 1023.3mb 57f
6:00 10 16 mph 1023.2mb 57f
5:54 13 20 mph 1023.2mb 57f
5:48 13 17 mph 1023.1mb 57f
5:42 10 16 mph 1023mb 57f
5:36 11 16 mph 1023mb 57f
5:30 11 16 mph 1023mb 57f
5:24 11 17 mph 1022.9mb 57f
5:18 11 16 mph 1022.8mb 57f
5:12 11 17 mph 1022.7mb 57f
5:06 11 17 mph 1022.7mb 57f
5:00 11 17 mph 1022.7mb 57f
4:54 11 16 mph 1022.7mb 57f
4:48 11 17 mph 1022.7mb 57f
4:42 11 17 mph 1022.7mb 57f
4:36 13 16 mph 1022.6mb 57f
4:30 9 14 mph 1022.6mb 57f
4:24 10 15 mph 1022.6mb 57f
4:18 10 15 mph 1022.6mb 57f
4:12 10 16 mph 1022.6mb 57f
4:06 10 16 mph 1022.7mb 56f
4:00 9 15 mph 1022.7mb 57f
3:54 8 13 mph 1022.7mb 57f
3:48 9 15 mph 1022.6mb 56f
3:42 10 14 mph 1022.7mb 56f
3:36 11 17 mph 1022.7mb 56f
3:30 9 14 mph 1022.7mb 57f
3:24 10 15 mph 1022.7mb 56f
3:18 10 15 mph 1022.6mb 56f
3:12 9 14 mph 1022.6mb 56f
3:06 10 18 mph 1022.6mb 56f
3:00 10 15 mph 1022.6mb 57f
2:54 10 16 mph 1022.6mb 57f
2:48 8 15 mph 1022.7mb 56f
2:42 9 14 mph 1022.7mb 56f
2:36 9 14 mph 1022.8mb 57f
2:30 9 14 mph 1022.8mb 57f
2:24 10 16 mph 1022.8mb 57f
2:18 10 16 mph - -
2:12 9 14 mph 1022.7mb 58f
2:06 10 16 mph 1022.6mb 58f
2:00 10 15 mph 1022.6mb 58f
1:54 10 15 mph 1022.6mb 58f
1:48 10 15 mph 1022.6mb 58f